sensor_id;sensor_type;location;lat;lon;timestamp;pressure;altitude;pressure_sealevel;temperature;humidity
33953;BME280;20231;42.710;23.280;2022-11-13T00:01:47;96324.25;;;12.43;68.46
33953;BME280;20231;42.710;23.280;2022-11-13T00:04:13;96312.50;;;12.29;69.03
33953;BME280;20231;42.710;23.280;2022-11-13T00:06:38;96310.91;;;12.28;69.04
33953;BME280;20231;42.710;23.280;2022-11-13T00:09:04;96308.50;;;12.21;69.32
33953;BME280;20231;42.710;23.280;2022-11-13T00:11:29;96304.72;;;12.12;69.37
33953;BME280;20231;42.710;23.280;2022-11-13T00:13:55;96310.84;;;12.18;69.43
33953;BME280;20231;42.710;23.280;2022-11-13T00:16:20;96305.75;;;12.11;69.61
33953;BME280;20231;42.710;23.280;2022-11-13T00:18:46;96320.63;;;12.17;69.71
33953;BME280;20231;42.710;23.280;2022-11-13T00:21:14;96310.28;;;12.16;69.64
33953;BME280;20231;42.710;23.280;2022-11-13T00:23:40;96309.69;;;12.04;70.04
33953;BME280;20231;42.710;23.280;2022-11-13T00:26:10;96313.97;;;12.15;69.87
33953;BME280;20231;42.710;23.280;2022-11-13T00:28:37;96313.19;;;12.14;70.03
33953;BME280;20231;42.710;23.280;2022-11-13T00:31:03;96311.06;;;12.16;70.04
33953;BME280;20231;42.710;23.280;2022-11-13T00:33:29;96313.72;;;12.16;70.23
33953;BME280;20231;42.710;23.280;2022-11-13T00:36:06;96314.28;;;12.18;70.23
33953;BME280;20231;42.710;23.280;2022-11-13T00:38:32;96317.72;;;12.19;70.35
33953;BME280;20231;42.710;23.280;2022-11-13T00:40:58;96315.63;;;12.26;70.08
33953;BME280;20231;42.710;23.280;2022-11-13T00:43:23;96317.50;;;12.25;70.13
33953;BME280;20231;42.710;23.280;2022-11-13T00:45:49;96315.91;;;12.24;69.97
33953;BME280;20231;42.710;23.280;2022-11-13T00:48:14;96304.59;;;12.34;69.69
33953;BME280;20231;42.710;23.280;2022-11-13T00:50:40;96302.72;;;12.34;69.73
33953;BME280;20231;42.710;23.280;2022-11-13T00:53:05;96309.31;;;12.27;69.70
33953;BME280;20231;42.710;23.280;2022-11-13T00:55:31;96323.69;;;12.41;69.56
33953;BME280;20231;42.710;23.280;2022-11-13T00:57:56;96310.44;;;12.41;69.54
33953;BME280;20231;42.710;23.280;2022-11-13T01:00:21;96304.91;;;12.47;69.25
33953;BME280;20231;42.710;23.280;2022-11-13T01:02:47;96300.16;;;12.49;69.25
33953;BME280;20231;42.710;23.280;2022-11-13T01:05:12;96315.56;;;12.52;69.33
33953;BME280;20231;42.710;23.280;2022-11-13T01:07:38;96308.66;;;12.51;69.25
33953;BME280;20231;42.710;23.280;2022-11-13T01:10:04;96303.34;;;12.46;69.25
33953;BME280;20231;42.710;23.280;2022-11-13T01:12:30;96310.50;;;12.51;69.28
33953;BME280;20231;42.710;23.280;2022-11-13T01:14:56;96302.53;;;12.46;69.40
33953;BME280;20231;42.710;23.280;2022-11-13T01:17:21;96305.72;;;12.48;69.34
33953;BME280;20231;42.710;23.280;2022-11-13T01:19:46;96305.19;;;12.51;69.10
33953;BME280;20231;42.710;23.280;2022-11-13T01:22:12;96301.75;;;12.45;68.99
33953;BME280;20231;42.710;23.280;2022-11-13T01:24:37;96304.41;;;12.45;69.27
33953;BME280;20231;42.710;23.280;2022-11-13T01:27:04;96302.53;;;12.46;69.22
33953;BME280;20231;42.710;23.280;2022-11-13T01:29:29;96301.19;;;12.43;69.23
33953;BME280;20231;42.710;23.280;2022-11-13T01:31:55;96307.28;;;12.44;69.20
33953;BME280;20231;42.710;23.280;2022-11-13T01:34:20;96299.88;;;12.41;69.39
33953;BME280;20231;42.710;23.280;2022-11-13T01:36:45;96287.09;;;12.33;69.17
33953;BME280;20231;42.710;23.280;2022-11-13T01:39:11;96290.00;;;12.31;68.98
33953;BME280;20231;42.710;23.280;2022-11-13T01:41:37;96289.53;;;12.39;69.11
33953;BME280;20231;42.710;23.280;2022-11-13T01:44:02;96287.09;;;12.28;69.18
33953;BME280;20231;42.710;23.280;2022-11-13T01:46:37;96276.75;;;12.26;68.95
33953;BME280;20231;42.710;23.280;2022-11-13T01:51:44;96274.63;;;12.28;68.84
33953;BME280;20231;42.710;23.280;2022-11-13T01:54:17;96287.63;;;12.30;69.01
33953;BME280;20231;42.710;23.280;2022-11-13T01:56:43;96260.59;;;12.23;68.46
33953;BME280;20231;42.710;23.280;2022-11-13T01:59:13;96279.44;;;12.31;68.60
33953;BME280;20231;42.710;23.280;2022-11-13T02:01:40;96280.47;;;12.30;68.81
33953;BME280;20231;42.710;23.280;2022-11-13T02:04:05;96285.00;;;12.30;68.63
33953;BME280;20231;42.710;23.280;2022-11-13T02:06:55;96282.34;;;12.30;68.68
33953;BME280;20231;42.710;23.280;2022-11-13T02:09:25;96284.16;;;12.29;68.57
33953;BME280;20231;42.710;23.280;2022-11-13T02:11:52;96274.34;;;12.25;68.57
33953;BME280;20231;42.710;23.280;2022-11-13T02:14:19;96277.34;;;12.33;68.38
33953;BME280;20231;42.710;23.280;2022-11-13T02:16:47;96284.19;;;12.34;68.10
33953;BME280;20231;42.710;23.280;2022-11-13T02:19:29;96283.16;;;12.35;68.22
33953;BME280;20231;42.710;23.280;2022-11-13T02:24:41;96274.41;;;12.30;68.37
33953;BME280;20231;42.710;23.280;2022-11-13T02:27:46;96271.19;;;12.23;68.58
33953;BME280;20231;42.710;23.280;2022-11-13T02:32:45;96277.50;;;12.17;68.87
33953;BME280;20231;42.710;23.280;2022-11-13T02:35:16;96276.91;;;12.10;69.13
33953;BME280;20231;42.710;23.280;2022-11-13T02:37:42;96270.03;;;12.09;69.40
33953;BME280;20231;42.710;23.280;2022-11-13T02:40:08;96272.19;;;12.17;69.34
33953;BME280;20231;42.710;23.280;2022-11-13T02:42:34;96269.59;;;12.22;69.18
33953;BME280;20231;42.710;23.280;2022-11-13T02:45:00;96265.56;;;12.14;69.36
33953;BME280;20231;42.710;23.280;2022-11-13T02:47:26;96259.75;;;12.17;69.14
33953;BME280;20231;42.710;23.280;2022-11-13T02:49:52;96259.25;;;12.20;69.17
33953;BME280;20231;42.710;23.280;2022-11-13T02:52:18;96263.75;;;12.20;69.37
33953;BME280;20231;42.710;23.280;2022-11-13T02:54:43;96271.69;;;12.25;69.22
33953;BME280;20231;42.710;23.280;2022-11-13T02:57:09;96262.69;;;12.21;69.22
33953;BME280;20231;42.710;23.280;2022-11-13T02:59:34;96272.53;;;12.30;69.04
33953;BME280;20231;42.710;23.280;2022-11-13T03:02:00;96267.25;;;12.30;68.93
33953;BME280;20231;42.710;23.280;2022-11-13T03:04:25;96270.94;;;12.29;69.28
33953;BME280;20231;42.710;23.280;2022-11-13T03:06:50;96279.13;;;12.23;69.35
33953;BME280;20231;42.710;23.280;2022-11-13T03:09:16;96270.41;;;12.27;69.33
33953;BME280;20231;42.710;23.280;2022-11-13T03:11:42;96274.41;;;12.30;69.15
33953;BME280;20231;42.710;23.280;2022-11-13T03:14:08;96265.66;;;12.29;69.30
33953;BME280;20231;42.710;23.280;2022-11-13T03:16:34;96272.78;;;12.24;69.49
33953;BME280;20231;42.710;23.280;2022-11-13T03:19:00;96268.25;;;12.19;69.53
33953;BME280;20231;42.710;23.280;2022-11-13T03:21:25;96266.69;;;12.28;69.34
33953;BME280;20231;42.710;23.280;2022-11-13T03:23:52;96285.00;;;12.30;69.50
33953;BME280;20231;42.710;23.280;2022-11-13T03:26:19;96286.31;;;12.32;69.71
33953;BME280;20231;42.710;23.280;2022-11-13T03:28:44;96277.53;;;12.27;69.66
33953;BME280;20231;42.710;23.280;2022-11-13T03:31:10;96287.09;;;12.33;69.79
33953;BME280;20231;42.710;23.280;2022-11-13T03:33:35;96271.97;;;12.23;69.77
33953;BME280;20231;42.710;23.280;2022-11-13T03:36:01;96275.47;;;12.34;69.81
33953;BME280;20231;42.710;23.280;2022-11-13T03:38:26;96274.41;;;12.30;69.82
33953;BME280;20231;42.710;23.280;2022-11-13T03:40:52;96288.69;;;12.34;70.17
33953;BME280;20231;42.710;23.280;2022-11-13T03:43:17;96276.53;;;12.38;69.65
33953;BME280;20231;42.710;23.280;2022-11-13T03:45:44;96285.81;;;12.40;69.74
33953;BME280;20231;42.710;23.280;2022-11-13T03:48:11;96281.78;;;12.28;69.95
33953;BME280;20231;42.710;23.280;2022-11-13T03:50:36;96296.09;;;12.32;70.12
33953;BME280;20231;42.710;23.280;2022-11-13T03:53:02;96293.94;;;12.24;70.53
33953;BME280;20231;42.710;23.280;2022-11-13T03:55:28;96289.19;;;12.31;70.32
33953;BME280;20231;42.710;23.280;2022-11-13T03:57:54;96285.28;;;12.38;70.31
33953;BME280;20231;42.710;23.280;2022-11-13T04:00:20;96287.94;;;12.38;70.21
33953;BME280;20231;42.710;23.280;2022-11-13T04:02:45;96283.97;;;12.41;70.12
33953;BME280;20231;42.710;23.280;2022-11-13T04:05:10;96289.56;;;12.44;69.95
33953;BME280;20231;42.710;23.280;2022-11-13T04:07:36;96288.47;;;12.40;69.97
33953;BME280;20231;42.710;23.280;2022-11-13T04:10:02;96284.00;;;12.46;69.98
33953;BME280;20231;42.710;23.280;2022-11-13T04:12:27;96290.66;;;12.53;69.75
33953;BME280;20231;42.710;23.280;2022-11-13T04:14:52;96293.81;;;12.50;69.86
33953;BME280;20231;42.710;23.280;2022-11-13T04:17:18;96283.75;;;12.47;70.04
33953;BME280;20231;42.710;23.280;2022-11-13T04:19:43;96285.34;;;12.53;69.81
33953;BME280;20231;42.710;23.280;2022-11-13T04:22:09;96268.13;;;12.46;69.75
33953;BME280;20231;42.710;23.280;2022-11-13T04:24:34;96275.28;;;12.50;69.67
33953;BME280;20231;42.710;23.280;2022-11-13T04:27:00;96274.25;;;12.51;69.74
33953;BME280;20231;42.710;23.280;2022-11-13T04:29:25;96279.25;;;12.48;69.84
33953;BME280;20231;42.710;23.280;2022-11-13T04:31:50;96277.94;;;12.50;69.78
33953;BME280;20231;42.710;23.280;2022-11-13T04:34:16;96286.66;;;12.46;70.04
33953;BME280;20231;42.710;23.280;2022-11-13T04:36:41;96290.34;;;12.45;70.27
33953;BME280;20231;42.710;23.280;2022-11-13T04:39:07;96281.38;;;12.51;69.91
33953;BME280;20231;42.710;23.280;2022-11-13T04:41:33;96280.06;;;12.53;69.82
33953;BME280;20231;42.710;23.280;2022-11-13T04:44:16;96282.47;;;12.55;69.81
33953;BME280;20231;42.710;23.280;2022-11-13T04:46:42;96278.22;;;12.54;70.06
33953;BME280;20231;42.710;23.280;2022-11-13T04:49:07;96284.31;;;12.54;70.00
33953;BME280;20231;42.710;23.280;2022-11-13T04:51:33;96280.84;;;12.49;70.00
33953;BME280;20231;42.710;23.280;2022-11-13T04:53:58;96277.13;;;12.50;70.03
33953;BME280;20231;42.710;23.280;2022-11-13T04:56:24;96287.19;;;12.48;70.26
33953;BME280;20231;42.710;23.280;2022-11-13T04:58:50;96273.41;;;12.46;70.46
33953;BME280;20231;42.710;23.280;2022-11-13T05:01:15;96283.00;;;12.57;69.92
33953;BME280;20231;42.710;23.280;2022-11-13T05:03:41;96287.78;;;12.55;70.06
33953;BME280;20231;42.710;23.280;2022-11-13T05:06:08;96292.03;;;12.61;69.93
33953;BME280;20231;42.710;23.280;2022-11-13T05:08:34;96293.00;;;12.50;70.35
33953;BME280;20231;42.710;23.280;2022-11-13T05:11:00;96280.31;;;12.52;70.03
33953;BME280;20231;42.710;23.280;2022-11-13T05:13:29;96298.94;;;12.62;70.15
33953;BME280;20231;42.710;23.280;2022-11-13T05:16:03;96280.31;;;12.52;69.96
33953;BME280;20231;42.710;23.280;2022-11-13T05:18:30;96291.72;;;12.52;70.17
33953;BME280;20231;42.710;23.280;2022-11-13T05:20:56;96285.63;;;12.52;70.14
33953;BME280;20231;42.710;23.280;2022-11-13T05:23:22;96284.84;;;12.56;70.26
33953;BME280;20231;42.710;23.280;2022-11-13T05:25:47;96293.28;;;12.53;70.05
33953;BME280;20231;42.710;23.280;2022-11-13T05:28:13;96297.56;;;12.59;70.31
33953;BME280;20231;42.710;23.280;2022-11-13T05:30:38;96292.81;;;12.56;70.18
33953;BME280;20231;42.710;23.280;2022-11-13T05:33:03;96295.44;;;12.56;70.10
33953;BME280;20231;42.710;23.280;2022-11-13T05:35:29;96297.53;;;12.54;70.21
33953;BME280;20231;42.710;23.280;2022-11-13T05:37:54;96293.06;;;12.55;70.10
33953;BME280;20231;42.710;23.280;2022-11-13T05:40:20;96304.47;;;12.60;69.91
33953;BME280;20231;42.710;23.280;2022-11-13T05:42:45;96306.03;;;12.56;70.06
33953;BME280;20231;42.710;23.280;2022-11-13T05:45:11;96303.13;;;12.58;69.78
33953;BME280;20231;42.710;23.280;2022-11-13T05:47:36;96309.53;;;12.62;69.73
33953;BME280;20231;42.710;23.280;2022-11-13T05:50:02;96311.34;;;12.56;69.85
33953;BME280;20231;42.710;23.280;2022-11-13T05:52:27;96299.69;;;12.52;69.79
33953;BME280;20231;42.710;23.280;2022-11-13T05:54:53;96317.97;;;12.59;69.95
33953;BME280;20231;42.710;23.280;2022-11-13T05:57:18;96297.53;;;12.49;69.88
33953;BME280;20231;42.710;23.280;2022-11-13T05:59:43;96311.59;;;12.55;69.70
33953;BME280;20231;42.710;23.280;2022-11-13T06:02:09;96307.09;;;12.55;69.55
33953;BME280;20231;42.710;23.280;2022-11-13T06:04:34;96321.38;;;12.54;69.63
33953;BME280;20231;42.710;23.280;2022-11-13T06:07:00;96320.56;;;12.49;69.56
33953;BME280;20231;42.710;23.280;2022-11-13T06:09:25;96326.75;;;12.69;74.97
33953;BME280;20231;42.710;23.280;2022-11-13T06:11:50;96334.66;;;13.10;83.04
33953;BME280;20231;42.710;23.280;2022-11-13T06:14:16;96322.13;;;12.96;76.97
33953;BME280;20231;42.710;23.280;2022-11-13T06:16:41;96324.72;;;12.86;72.99
33953;BME280;20231;42.710;23.280;2022-11-13T06:19:09;96317.25;;;12.78;70.89
33953;BME280;20231;42.710;23.280;2022-11-13T06:21:38;96323.44;;;12.88;69.55
33953;BME280;20231;42.710;23.280;2022-11-13T06:24:04;96320.97;;;12.77;69.05
33953;BME280;20231;42.710;23.280;2022-11-13T06:26:32;96320.47;;;12.85;68.98
33953;BME280;20231;42.710;23.280;2022-11-13T06:28:59;96327.31;;;12.76;68.92
33953;BME280;20231;42.710;23.280;2022-11-13T06:31:27;96323.06;;;12.70;69.03
33953;BME280;20231;42.710;23.280;2022-11-13T06:33:53;96326.50;;;12.76;68.68
33953;BME280;20231;42.710;23.280;2022-11-13T06:36:21;96334.44;;;12.71;68.58
33953;BME280;20231;42.710;23.280;2022-11-13T06:38:47;96332.06;;;12.69;68.78
33953;BME280;20231;42.710;23.280;2022-11-13T06:41:15;96324.63;;;12.66;68.59
33953;BME280;20231;42.710;23.280;2022-11-13T06:43:41;96323.56;;;12.67;68.76
33953;BME280;20231;42.710;23.280;2022-11-13T06:46:22;96313.44;;;12.54;68.94
33953;BME280;20231;42.710;23.280;2022-11-13T06:48:49;96316.59;;;12.51;68.91
33953;BME280;20231;42.710;23.280;2022-11-13T06:51:17;96326.91;;;12.48;69.61
33953;BME280;20231;42.710;23.280;2022-11-13T06:53:42;96328.06;;;12.62;68.95
33953;BME280;20231;42.710;23.280;2022-11-13T06:56:09;96313.16;;;12.56;69.05
33953;BME280;20231;42.710;23.280;2022-11-13T06:58:35;96316.38;;;12.58;68.96
33953;BME280;20231;42.710;23.280;2022-11-13T07:01:07;96327.81;;;12.68;68.78
33953;BME280;20231;42.710;23.280;2022-11-13T07:03:34;96315.41;;;12.74;68.22
33953;BME280;20231;42.710;23.280;2022-11-13T07:06:10;96328.66;;;12.79;68.25
33953;BME280;20231;42.710;23.280;2022-11-13T07:08:38;96318.00;;;12.69;68.34
33953;BME280;20231;42.710;23.280;2022-11-13T07:11:04;96323.06;;;12.70;68.53
33953;BME280;20231;42.710;23.280;2022-11-13T07:13:32;96325.19;;;12.73;67.67
33953;BME280;20231;42.710;23.280;2022-11-13T07:16:01;96327.53;;;12.70;67.63
33953;BME280;20231;42.710;23.280;2022-11-13T07:18:27;96318.53;;;12.66;67.90
33953;BME280;20231;42.710;23.280;2022-11-13T07:20:53;96325.44;;;12.67;68.18
33953;BME280;20231;42.710;23.280;2022-11-13T07:23:18;96334.19;;;12.72;67.74
33953;BME280;20231;42.710;23.280;2022-11-13T07:25:43;96320.16;;;12.72;67.38
33953;BME280;20231;42.710;23.280;2022-11-13T07:28:09;96336.13;;;12.86;67.34
33953;BME280;20231;42.710;23.280;2022-11-13T07:30:34;96325.25;;;12.83;67.45
33953;BME280;20231;42.710;23.280;2022-11-13T07:33:03;96329.22;;;12.85;67.54
33953;BME280;20231;42.710;23.280;2022-11-13T07:35:29;96317.31;;;12.83;67.89
33953;BME280;20231;42.710;23.280;2022-11-13T07:37:55;96315.41;;;12.79;67.70
33953;BME280;20231;42.710;23.280;2022-11-13T07:40:20;96326.28;;;12.77;67.65
33953;BME280;20231;42.710;23.280;2022-11-13T07:42:46;96331.03;;;12.80;67.58
33953;BME280;20231;42.710;23.280;2022-11-13T07:45:11;96336.13;;;12.86;67.32
33953;BME280;20231;42.710;23.280;2022-11-13T07:47:37;96338.53;;;12.88;67.13
33953;BME280;20231;42.710;23.280;2022-11-13T07:50:03;96332.72;;;12.91;66.53
33953;BME280;20231;42.710;23.280;2022-11-13T07:52:29;96334.75;;;12.84;67.04
33953;BME280;20231;42.710;23.280;2022-11-13T07:54:54;96344.88;;;12.87;66.88
33953;BME280;20231;42.710;23.280;2022-11-13T07:57:20;96342.47;;;12.85;66.46
33953;BME280;20231;42.710;23.280;2022-11-13T07:59:47;96335.31;;;12.86;66.28
33953;BME280;20231;42.710;23.280;2022-11-13T08:02:14;96337.50;;;12.89;66.51
33953;BME280;20231;42.710;23.280;2022-11-13T08:04:40;96339.09;;;12.95;66.05
33953;BME280;20231;42.710;23.280;2022-11-13T08:07:05;96330.25;;;12.80;66.18
33953;BME280;20231;42.710;23.280;2022-11-13T08:09:31;96316.47;;;12.78;66.45
33953;BME280;20231;42.710;23.280;2022-11-13T08:11:56;96337.50;;;12.89;65.94
33953;BME280;20231;42.710;23.280;2022-11-13T08:14:22;96329.72;;;12.82;66.02
33953;BME280;20231;42.710;23.280;2022-11-13T08:16:47;96327.38;;;12.86;65.76
33953;BME280;20231;42.710;23.280;2022-11-13T08:19:12;96335.06;;;12.87;66.27
33953;BME280;20231;42.710;23.280;2022-11-13T08:21:38;96323.44;;;12.88;65.69
33953;BME280;20231;42.710;23.280;2022-11-13T08:24:03;96330.34;;;12.99;65.21
33953;BME280;20231;42.710;23.280;2022-11-13T08:26:28;96325.03;;;12.89;65.16
33953;BME280;20231;42.710;23.280;2022-11-13T08:28:54;96320.44;;;12.80;65.26
33953;BME280;20231;42.710;23.280;2022-11-13T08:31:19;96336.16;;;12.91;65.37
33953;BME280;20231;42.710;23.280;2022-11-13T08:33:45;96324.72;;;12.86;65.44
33953;BME280;20231;42.710;23.280;2022-11-13T08:36:10;96330.06;;;12.96;65.14
33953;BME280;20231;42.710;23.280;2022-11-13T08:38:36;96338.03;;;12.96;64.98
33953;BME280;20231;42.710;23.280;2022-11-13T08:41:04;96342.03;;;13.03;64.74
33953;BME280;20231;42.710;23.280;2022-11-13T08:43:30;96339.09;;;12.95;64.90
33953;BME280;20231;42.710;23.280;2022-11-13T08:45:55;96338.28;;;12.94;65.09
33953;BME280;20231;42.710;23.280;2022-11-13T08:48:22;96357.66;;;12.95;65.21
33953;BME280;20231;42.710;23.280;2022-11-13T08:50:53;96356.06;;;12.99;64.94
33953;BME280;20231;42.710;23.280;2022-11-13T08:53:19;96342.47;;;12.85;65.29
33953;BME280;20231;42.710;23.280;2022-11-13T08:55:45;96337.13;;;12.80;65.36
33953;BME280;20231;42.710;23.280;2022-11-13T08:58:10;96362.13;;;12.89;65.12
33953;BME280;20231;42.710;23.280;2022-11-13T09:00:36;96357.06;;;12.88;65.18
33953;BME280;20231;42.710;23.280;2022-11-13T09:03:02;96360.00;;;12.91;65.23
33953;BME280;20231;42.710;23.280;2022-11-13T09:05:27;96353.41;;;12.94;65.13
33953;BME280;20231;42.710;23.280;2022-11-13T09:07:57;96356.03;;;12.94;65.29
33953;BME280;20231;42.710;23.280;2022-11-13T09:10:24;96359.00;;;13.02;64.94
33953;BME280;20231;42.710;23.280;2022-11-13T09:13:02;96359.56;;;13.09;64.67
33953;BME280;20231;42.710;23.280;2022-11-13T09:15:28;96357.69;;;13.10;64.77
33953;BME280;20231;42.710;23.280;2022-11-13T09:17:58;96355.56;;;13.07;64.67
33953;BME280;20231;42.710;23.280;2022-11-13T09:20:25;96357.47;;;13.11;64.69
33953;BME280;20231;42.710;23.280;2022-11-13T09:22:56;96353.97;;;13.06;64.67
33953;BME280;20231;42.710;23.280;2022-11-13T09:25:22;96356.09;;;13.09;64.74
33953;BME280;20231;42.710;23.280;2022-11-13T09:27:52;96349.19;;;13.03;64.96
33953;BME280;20231;42.710;23.280;2022-11-13T09:30:18;96347.91;;;13.10;64.86
33953;BME280;20231;42.710;23.280;2022-11-13T09:32:43;96352.16;;;13.16;64.75
33953;BME280;20231;42.710;23.280;2022-11-13T09:35:08;96344.44;;;13.05;64.85
33953;BME280;20231;42.710;23.280;2022-11-13T09:37:34;96335.72;;;13.09;64.92
33953;BME280;20231;42.710;23.280;2022-11-13T09:39:59;96331.47;;;13.13;64.76
33953;BME280;20231;42.710;23.280;2022-11-13T09:42:26;96323.00;;;13.16;64.69
33953;BME280;20231;42.710;23.280;2022-11-13T09:45:05;96336.84;;;13.28;65.07
33953;BME280;20231;42.710;23.280;2022-11-13T09:47:39;96310.06;;;13.30;64.41
33953;BME280;20231;42.710;23.280;2022-11-13T09:50:19;96327.56;;;13.46;64.47
33953;BME280;20231;42.710;23.280;2022-11-13T09:52:46;96322.53;;;13.44;63.71
33953;BME280;20231;42.710;23.280;2022-11-13T09:55:15;96305.53;;;13.30;64.04
33953;BME280;20231;42.710;23.280;2022-11-13T09:57:50;96316.19;;;13.40;64.24
33953;BME280;20231;42.710;23.280;2022-11-13T10:00:19;96315.41;;;13.45;64.10
33953;BME280;20231;42.710;23.280;2022-11-13T10:05:45;96320.44;;;13.56;63.96
33953;BME280;20231;42.710;23.280;2022-11-13T10:11:30;96308.00;;;13.66;63.40
33953;BME280;20231;42.710;23.280;2022-11-13T10:14:17;96313.56;;;13.70;62.93
33953;BME280;20231;42.710;23.280;2022-11-13T10:17:06;96315.44;;;13.69;62.87
33953;BME280;20231;42.710;23.280;2022-11-13T10:20:00;96312.75;;;13.64;62.66
33953;BME280;20231;42.710;23.280;2022-11-13T10:22:27;96306.66;;;13.64;62.38
33953;BME280;20231;42.710;23.280;2022-11-13T10:25:19;96300.84;;;13.67;62.21
33953;BME280;20231;42.710;23.280;2022-11-13T10:28:22;96307.22;;;13.71;62.15
33953;BME280;20231;42.710;23.280;2022-11-13T10:34:03;96293.41;;;13.64;62.34
33953;BME280;20231;42.710;23.280;2022-11-13T10:36:43;96300.59;;;13.68;62.19
33953;BME280;20231;42.710;23.280;2022-11-13T10:39:12;96295.28;;;13.73;61.21
33953;BME280;20231;42.710;23.280;2022-11-13T10:41:49;96291.03;;;13.67;61.63
33953;BME280;20231;42.710;23.280;2022-11-13T10:44:27;96291.56;;;13.69;61.69
33953;BME280;20231;42.710;23.280;2022-11-13T10:47:26;96293.16;;;13.75;61.49
33953;BME280;20231;42.710;23.280;2022-11-13T10:49:54;96290.50;;;13.75;61.53
33953;BME280;20231;42.710;23.280;2022-11-13T10:52:23;96290.22;;;13.77;61.66
33953;BME280;20231;42.710;23.280;2022-11-13T10:54:50;96285.47;;;13.79;61.63
33953;BME280;20231;42.710;23.280;2022-11-13T10:57:32;96286.25;;;13.74;61.20
33953;BME280;20231;42.710;23.280;2022-11-13T10:59:59;96275.91;;;13.78;61.49
33953;BME280;20231;42.710;23.280;2022-11-13T11:02:26;96283.88;;;14.23;77.56
33953;BME280;20231;42.710;23.280;2022-11-13T11:05:15;96276.09;;;14.46;74.69
33953;BME280;20231;42.710;23.280;2022-11-13T11:07:40;96272.94;;;14.39;70.23
33953;BME280;20231;42.710;23.280;2022-11-13T11:12:58;96274.81;;;14.33;61.73
33953;BME280;20231;42.710;23.280;2022-11-13T11:15:31;96269.28;;;14.25;61.32
33953;BME280;20231;42.710;23.280;2022-11-13T11:18:03;96262.38;;;14.24;60.28
33953;BME280;20231;42.710;23.280;2022-11-13T11:21:00;96259.72;;;14.19;60.62
33953;BME280;20231;42.710;23.280;2022-11-13T11:23:59;96266.59;;;14.20;60.20
33953;BME280;20231;42.710;23.280;2022-11-13T11:29:12;96270.06;;;14.21;60.87
33953;BME280;20231;42.710;23.280;2022-11-13T11:31:50;96268.19;;;14.21;61.48
33953;BME280;20231;42.710;23.280;2022-11-13T11:34:31;96262.09;;;14.11;60.78
33953;BME280;20231;42.710;23.280;2022-11-13T11:37:18;96260.50;;;14.05;60.73
33953;BME280;20231;42.710;23.280;2022-11-13T11:42:46;96251.22;;;14.07;63.09
33953;BME280;20231;42.710;23.280;2022-11-13T11:45:21;96252.00;;;14.08;61.56
33953;BME280;20231;42.710;23.280;2022-11-13T11:47:48;96238.47;;;13.99;60.99
33953;BME280;20231;42.710;23.280;2022-11-13T11:50:16;96244.56;;;14.00;60.69
33953;BME280;20231;42.710;23.280;2022-11-13T11:55:36;96245.63;;;14.09;60.56
33953;BME280;20231;42.710;23.280;2022-11-13T11:58:18;96240.59;;;14.07;60.07
33953;BME280;20231;42.710;23.280;2022-11-13T12:00:51;96244.88;;;14.13;60.36
33953;BME280;20231;42.710;23.280;2022-11-13T12:09:26;96248.03;;;14.05;59.63
33953;BME280;20231;42.710;23.280;2022-11-13T12:14:49;96239.81;;;14.02;59.83
33953;BME280;20231;42.710;23.280;2022-11-13T12:20:19;96238.44;;;14.09;59.35
33953;BME280;20231;42.710;23.280;2022-11-13T12:30:58;96231.31;;;13.95;59.20
33953;BME280;20231;42.710;23.280;2022-11-13T12:33:36;96232.38;;;13.94;59.58
33953;BME280;20231;42.710;23.280;2022-11-13T12:36:03;96224.94;;;13.96;59.54
33953;BME280;20231;42.710;23.280;2022-11-13T12:38:35;96222.56;;;13.99;59.41
33953;BME280;20231;42.710;23.280;2022-11-13T12:44:25;96224.66;;;14.02;59.26
33953;BME280;20231;42.710;23.280;2022-11-13T12:46:52;96226.03;;;14.10;59.09
33953;BME280;20231;42.710;23.280;2022-11-13T12:51:55;96219.06;;;14.24;58.80
33953;BME280;20231;42.710;23.280;2022-11-13T12:54:26;96224.59;;;14.42;58.32
33953;BME280;20231;42.710;23.280;2022-11-13T12:56:51;96221.91;;;14.52;58.27
33953;BME280;20231;42.710;23.280;2022-11-13T13:01:45;96215.94;;;14.80;57.29
33953;BME280;20231;42.710;23.280;2022-11-13T13:09:28;96222.84;;;15.29;56.40
33953;BME280;20231;42.710;23.280;2022-11-13T13:12:17;96209.31;;;15.30;55.67
33953;BME280;20231;42.710;23.280;2022-11-13T13:14:58;96211.78;;;15.55;55.37
33953;BME280;20231;42.710;23.280;2022-11-13T13:17:27;96198.59;;;15.40;54.77
33953;BME280;20231;42.710;23.280;2022-11-13T13:19:58;96224.63;;;15.43;54.81
33953;BME280;20231;42.710;23.280;2022-11-13T13:22:31;96213.56;;;15.31;54.99
33953;BME280;20231;42.710;23.280;2022-11-13T13:27:27;96195.56;;;15.52;54.74
33953;BME280;20231;42.710;23.280;2022-11-13T13:29:53;96204.28;;;15.57;54.11
33953;BME280;20231;42.710;23.280;2022-11-13T13:32:27;96201.91;;;15.56;54.20
33953;BME280;20231;42.710;23.280;2022-11-13T13:35:16;96198.44;;;15.60;54.53
33953;BME280;20231;42.710;23.280;2022-11-13T13:37:49;96204.72;;;15.74;54.31
33953;BME280;20231;42.710;23.280;2022-11-13T13:40:34;96201.72;;;15.80;54.12
33953;BME280;20231;42.710;23.280;2022-11-13T13:46:15;96181.63;;;16.16;65.14
33953;BME280;20231;42.710;23.280;2022-11-13T13:48:48;96196.53;;;16.45;71.14
33953;BME280;20231;42.710;23.280;2022-11-13T13:51:30;96196.66;;;16.36;58.02
33953;BME280;20231;42.710;23.280;2022-11-13T13:53:59;96190.56;;;16.30;55.11
33953;BME280;20231;42.710;23.280;2022-11-13T13:56:26;96183.75;;;16.19;57.66
33953;BME280;20231;42.710;23.280;2022-11-13T13:58:51;96187.38;;;16.05;58.85
33953;BME280;20231;42.710;23.280;2022-11-13T14:01:32;96193.72;;;16.09;58.57
33953;BME280;20231;42.710;23.280;2022-11-13T14:04:13;96193.16;;;16.12;60.45
33953;BME280;20231;42.710;23.280;2022-11-13T14:06:50;96191.34;;;16.07;59.87